sensor_id;sensor_type;location;lat;lon;timestamp;pressure;altitude;pressure_sealevel;temperature
73734;BMP280;62039;50.000;9.064;2023-10-08T08:36:37;101169.59;;;16.80
73734;BMP280;62039;50.000;9.064;2023-10-08T08:39:04;101164.81;;;16.83
73734;BMP280;62039;50.000;9.064;2023-10-08T08:41:31;101171.50;;;16.86
73734;BMP280;62039;50.000;9.064;2023-10-08T08:43:59;101176.31;;;16.91
73734;BMP280;62039;50.000;9.064;2023-10-08T08:46:30;101185.47;;;16.95
73734;BMP280;62039;50.000;9.064;2023-10-08T08:49:00;101189.38;;;16.99
73734;BMP280;62039;50.000;9.064;2023-10-08T08:51:28;101194.31;;;17.02
73734;BMP280;62039;50.000;9.064;2023-10-08T08:53:58;101196.22;;;17.08
73734;BMP280;62039;50.000;9.064;2023-10-08T08:56:26;101198.50;;;17.11
73734;BMP280;62039;50.000;9.064;2023-10-08T08:58:53;101196.31;;;17.14
73734;BMP280;62039;50.000;9.064;2023-10-08T09:01:22;101204.69;;;17.18
73734;BMP280;62039;50.000;9.064;2023-10-08T09:03:49;101211.88;;;17.24
73734;BMP280;62039;50.000;9.064;2023-10-08T09:06:16;101208.88;;;17.27
73734;BMP280;62039;50.000;9.064;2023-10-08T09:08:43;101215.22;;;17.33
73734;BMP280;62039;50.000;9.064;2023-10-08T09:11:14;101217.16;;;17.39
73734;BMP280;62039;50.000;9.064;2023-10-08T09:13:41;101206.03;;;17.43
73734;BMP280;62039;50.000;9.064;2023-10-08T09:16:12;101211.41;;;17.50
73734;BMP280;62039;50.000;9.064;2023-10-08T09:18:41;101215.94;;;17.56
73734;BMP280;62039;50.000;9.064;2023-10-08T09:21:13;101218.72;;;17.62
73734;BMP280;62039;50.000;9.064;2023-10-08T09:23:40;101214.50;;;17.68
73734;BMP280;62039;50.000;9.064;2023-10-08T09:26:07;101234.72;;;17.76
73734;BMP280;62039;50.000;9.064;2023-10-08T09:28:37;101245.19;;;17.84
73734;BMP280;62039;50.000;9.064;2023-10-08T09:31:04;101228.56;;;17.90
73734;BMP280;62039;50.000;9.064;2023-10-08T09:33:31;101221.72;;;17.95
73734;BMP280;62039;50.000;9.064;2023-10-08T09:35:59;101213.03;;;18.01
73734;BMP280;62039;50.000;9.064;2023-10-08T09:38:26;101214.75;;;18.09
73734;BMP280;62039;50.000;9.064;2023-10-08T09:40:53;101213.97;;;18.15
73734;BMP280;62039;50.000;9.064;2023-10-08T09:43:20;101211.59;;;18.20
73734;BMP280;62039;50.000;9.064;2023-10-08T09:45:53;101209.56;;;18.22
73734;BMP280;62039;50.000;9.064;2023-10-08T09:48:24;101210.88;;;18.26
73734;BMP280;62039;50.000;9.064;2023-10-08T09:50:53;101215.41;;;18.32
73734;BMP280;62039;50.000;9.064;2023-10-08T09:53:28;101222.41;;;18.40
73734;BMP280;62039;50.000;9.064;2023-10-08T09:55:59;101222.47;;;18.47
73734;BMP280;62039;50.000;9.064;2023-10-08T09:58:27;101213.94;;;18.51
73734;BMP280;62039;50.000;9.064;2023-10-08T10:00:59;101209.06;;;18.55
73734;BMP280;62039;50.000;9.064;2023-10-08T10:03:26;101209.34;;;18.60
73734;BMP280;62039;50.000;9.064;2023-10-08T10:05:54;101212.84;;;18.67
73734;BMP280;62039;50.000;9.064;2023-10-08T10:08:21;101215.31;;;18.75
73734;BMP280;62039;50.000;9.064;2023-10-08T10:10:58;101208.88;;;18.84
73734;BMP280;62039;50.000;9.064;2023-10-08T10:13:28;101207.13;;;18.91
73734;BMP280;62039;50.000;9.064;2023-10-08T10:15:58;101213.28;;;18.98
73734;BMP280;62039;50.000;9.064;2023-10-08T10:18:28;101212.31;;;19.06
73734;BMP280;62039;50.000;9.064;2023-10-08T10:20:58;101210.72;;;19.11
73734;BMP280;62039;50.000;9.064;2023-10-08T10:23:35;101203.81;;;19.17
73734;BMP280;62039;50.000;9.064;2023-10-08T10:26:03;101196.91;;;19.23
73734;BMP280;62039;50.000;9.064;2023-10-08T10:28:30;101201.63;;;19.27
73734;BMP280;62039;50.000;9.064;2023-10-08T10:31:00;101219.16;;;19.35
73734;BMP280;62039;50.000;9.064;2023-10-08T10:33:30;101225.31;;;19.42
73734;BMP280;62039;50.000;9.064;2023-10-08T10:35:57;101225.56;;;19.47
73734;BMP280;62039;50.000;9.064;2023-10-08T10:38:25;101215.84;;;19.54
73734;BMP280;62039;50.000;9.064;2023-10-08T10:40:53;101217.28;;;19.63
73734;BMP280;62039;50.000;9.064;2023-10-08T10:43:19;101224.69;;;19.74
73734;BMP280;62039;50.000;9.064;2023-10-08T10:45:46;101222.47;;;19.84
73734;BMP280;62039;50.000;9.064;2023-10-08T10:48:16;101223.50;;;19.96
73734;BMP280;62039;50.000;9.064;2023-10-08T10:50:43;101233.53;;;20.08
73734;BMP280;62039;50.000;9.064;2023-10-08T10:53:12;101236.25;;;20.21
73734;BMP280;62039;50.000;9.064;2023-10-08T10:55:40;101238.28;;;20.32
73734;BMP280;62039;50.000;9.064;2023-10-08T10:58:07;101234.81;;;20.45
73734;BMP280;62039;50.000;9.064;2023-10-08T11:00:34;101242.78;;;20.58
73734;BMP280;62039;50.000;9.064;2023-10-08T11:03:03;101250.94;;;20.69
73734;BMP280;62039;50.000;9.064;2023-10-08T11:05:34;101255.47;;;20.82
73734;BMP280;62039;50.000;9.064;2023-10-08T11:08:01;101253.41;;;20.91
73734;BMP280;62039;50.000;9.064;2023-10-08T11:10:30;101249.09;;;21.03
73734;BMP280;62039;50.000;9.064;2023-10-08T11:12:58;101241.72;;;21.11
73734;BMP280;62039;50.000;9.064;2023-10-08T11:15:25;101241.31;;;21.21
73734;BMP280;62039;50.000;9.064;2023-10-08T11:17:52;101246.97;;;21.31
73734;BMP280;62039;50.000;9.064;2023-10-08T11:20:26;101244.13;;;21.39
73734;BMP280;62039;50.000;9.064;2023-10-08T11:22:56;101248.59;;;21.45
73734;BMP280;62039;50.000;9.064;2023-10-08T11:25:24;101245.91;;;21.52
73734;BMP280;62039;50.000;9.064;2023-10-08T11:27:51;101230.13;;;21.57
73734;BMP280;62039;50.000;9.064;2023-10-08T11:30:18;101228.50;;;21.63
73734;BMP280;62039;50.000;9.064;2023-10-08T11:32:46;101232.16;;;21.68
73734;BMP280;62039;50.000;9.064;2023-10-08T11:35:15;101223.97;;;21.70
73734;BMP280;62039;50.000;9.064;2023-10-08T11:37:45;101217.59;;;21.71
73734;BMP280;62039;50.000;9.064;2023-10-08T11:40:24;101218.00;;;21.74
73734;BMP280;62039;50.000;9.064;2023-10-08T11:42:51;101212.69;;;21.74
73734;BMP280;62039;50.000;9.064;2023-10-08T11:45:18;101218.38;;;21.78
73734;BMP280;62039;50.000;9.064;2023-10-08T11:47:45;101203.25;;;21.78
73734;BMP280;62039;50.000;9.064;2023-10-08T11:50:12;101196.91;;;21.79
73734;BMP280;62039;50.000;9.064;2023-10-08T11:52:39;101187.91;;;21.80
73734;BMP280;62039;50.000;9.064;2023-10-08T11:55:07;101192.19;;;21.81
73734;BMP280;62039;50.000;9.064;2023-10-08T11:57:36;101188.28;;;21.84
73734;BMP280;62039;50.000;9.064;2023-10-08T12:00:05;101191.53;;;21.86
73734;BMP280;62039;50.000;9.064;2023-10-08T12:02:43;101191.53;;;21.86
73734;BMP280;62039;50.000;9.064;2023-10-08T12:05:10;101186.22;;;21.86
73734;BMP280;62039;50.000;9.064;2023-10-08T12:07:37;101179.28;;;21.85
73734;BMP280;62039;50.000;9.064;2023-10-08T12:10:05;101176.84;;;21.83
73734;BMP280;62039;50.000;9.064;2023-10-08T12:12:32;101176.84;;;21.83
73734;BMP280;62039;50.000;9.064;2023-10-08T12:15:02;101184.59;;;21.85
73734;BMP280;62039;50.000;9.064;2023-10-08T12:17:29;101186.84;;;21.88
73734;BMP280;62039;50.000;9.064;2023-10-08T12:19:56;101186.38;;;21.91
73734;BMP280;62039;50.000;9.064;2023-10-08T12:22:23;101188.66;;;21.94
73734;BMP280;62039;50.000;9.064;2023-10-08T12:24:50;101189.84;;;21.98
73734;BMP280;62039;50.000;9.064;2023-10-08T12:27:17;101189.00;;;22.04
73734;BMP280;62039;50.000;9.064;2023-10-08T12:29:44;101180.75;;;22.12
73734;BMP280;62039;50.000;9.064;2023-10-08T12:32:13;101182.94;;;22.22
73734;BMP280;62039;50.000;9.064;2023-10-08T12:34:41;101188.34;;;22.33
73734;BMP280;62039;50.000;9.064;2023-10-08T12:37:07;101184.97;;;22.45
73734;BMP280;62039;50.000;9.064;2023-10-08T12:39:34;101186.53;;;22.59
73734;BMP280;62039;50.000;9.064;2023-10-08T12:42:01;101182.25;;;22.76
73734;BMP280;62039;50.000;9.064;2023-10-08T12:44:28;101173.47;;;22.94
73734;BMP280;62039;50.000;9.064;2023-10-08T12:46:55;101175.78;;;23.08
73734;BMP280;62039;50.000;9.064;2023-10-08T12:49:25;101180.06;;;23.28
73734;BMP280;62039;50.000;9.064;2023-10-08T12:51:52;101176.78;;;23.44
73734;BMP280;62039;50.000;9.064;2023-10-08T12:54:19;101172.25;;;23.63
73734;BMP280;62039;50.000;9.064;2023-10-08T12:56:46;101181.81;;;23.82
73734;BMP280;62039;50.000;9.064;2023-10-08T12:59:13;101191.38;;;24.01
73734;BMP280;62039;50.000;9.064;2023-10-08T13:01:40;101182.50;;;24.19
73734;BMP280;62039;50.000;9.064;2023-10-08T13:04:07;101173.81;;;24.35
73734;BMP280;62039;50.000;9.064;2023-10-08T13:06:36;101181.13;;;24.51
73734;BMP280;62039;50.000;9.064;2023-10-08T13:09:04;101164.88;;;24.64
73734;BMP280;62039;50.000;9.064;2023-10-08T13:11:31;101168.34;;;24.77
73734;BMP280;62039;50.000;9.064;2023-10-08T13:13:58;101161.94;;;24.89
73734;BMP280;62039;50.000;9.064;2023-10-08T13:16:26;101154.97;;;25.00
73734;BMP280;62039;50.000;9.064;2023-10-08T13:18:53;101156.19;;;25.09
73734;BMP280;62039;50.000;9.064;2023-10-08T13:21:20;101147.81;;;25.17
73734;BMP280;62039;50.000;9.064;2023-10-08T13:23:50;101147.69;;;25.24
73734;BMP280;62039;50.000;9.064;2023-10-08T13:26:17;101134.41;;;25.29
73734;BMP280;62039;50.000;9.064;2023-10-08T13:28:44;101143.34;;;25.34
73734;BMP280;62039;50.000;9.064;2023-10-08T13:31:11;101134.03;;;25.37
73734;BMP280;62039;50.000;9.064;2023-10-08T13:33:39;101130.63;;;25.41
73734;BMP280;62039;50.000;9.064;2023-10-08T13:36:06;101126.91;;;25.42
73734;BMP280;62039;50.000;9.064;2023-10-08T13:38:45;101122.97;;;25.45
73734;BMP280;62039;50.000;9.064;2023-10-08T13:41:15;101128.63;;;25.49
73734;BMP280;62039;50.000;9.064;2023-10-08T13:43:43;101124.91;;;25.50
73734;BMP280;62039;50.000;9.064;2023-10-08T13:46:10;101128.97;;;25.52
73734;BMP280;62039;50.000;9.064;2023-10-08T13:48:38;101127.66;;;25.55
73734;BMP280;62039;50.000;9.064;2023-10-08T13:51:06;101127.94;;;25.53
73734;BMP280;62039;50.000;9.064;2023-10-08T13:53:34;101129.22;;;25.51
73734;BMP280;62039;50.000;9.064;2023-10-08T13:56:01;101122.47;;;25.48
73734;BMP280;62039;50.000;9.064;2023-10-08T13:58:31;101128.06;;;25.47
73734;BMP280;62039;50.000;9.064;2023-10-08T14:00:58;101127.97;;;25.41
73734;BMP280;62039;50.000;9.064;2023-10-08T14:03:25;101123.09;;;25.38
73734;BMP280;62039;50.000;9.064;2023-10-08T14:05:52;101125.69;;;25.33
73734;BMP280;62039;50.000;9.064;2023-10-08T14:08:19;101123.94;;;25.27
73734;BMP280;62039;50.000;9.064;2023-10-08T14:10:46;101116.09;;;25.21
73734;BMP280;62039;50.000;9.064;2023-10-08T14:13:13;101125.28;;;25.13
73734;BMP280;62039;50.000;9.064;2023-10-08T14:15:43;101127.84;;;25.08
73734;BMP280;62039;50.000;9.064;2023-10-08T14:18:10;101122.63;;;25.01
73734;BMP280;62039;50.000;9.064;2023-10-08T14:20:37;101109.41;;;24.95
73734;BMP280;62039;50.000;9.064;2023-10-08T14:23:04;101115.69;;;24.89
73734;BMP280;62039;50.000;9.064;2023-10-08T14:25:31;101106.19;;;24.81
73734;BMP280;62039;50.000;9.064;2023-10-08T14:27:58;101113.06;;;24.77
73734;BMP280;62039;50.000;9.064;2023-10-08T14:30:25;101113.19;;;24.71
73734;BMP280;62039;50.000;9.064;2023-10-08T14:32:55;101106.09;;;24.64
73734;BMP280;62039;50.000;9.064;2023-10-08T14:35:22;101111.56;;;24.58
73734;BMP280;62039;50.000;9.064;2023-10-08T14:37:49;101099.97;;;24.52
73734;BMP280;62039;50.000;9.064;2023-10-08T14:40:16;101098.22;;;24.46
73734;BMP280;62039;50.000;9.064;2023-10-08T14:42:43;101106.13;;;24.41
73734;BMP280;62039;50.000;9.064;2023-10-08T14:45:10;101099.03;;;24.35
73734;BMP280;62039;50.000;9.064;2023-10-08T14:47:38;101099.97;;;24.29
73734;BMP280;62039;50.000;9.064;2023-10-08T14:50:09;101110.56;;;24.24
73734;BMP280;62039;50.000;9.064;2023-10-08T14:52:36;101102.88;;;24.16
73734;BMP280;62039;50.000;9.064;2023-10-08T14:55:04;101089.41;;;24.11
73734;BMP280;62039;50.000;9.064;2023-10-08T14:57:31;101084.19;;;24.04
73734;BMP280;62039;50.000;9.064;2023-10-08T15:16:04;101066.09;;;23.53
73734;BMP280;62039;50.000;9.064;2023-10-08T15:18:31;101078.47;;;23.47
73734;BMP280;62039;50.000;9.064;2023-10-08T15:21:00;101080.22;;;23.42
73734;BMP280;62039;50.000;9.064;2023-10-08T15:23:27;101082.53;;;23.38
73734;BMP280;62039;50.000;9.064;2023-10-08T15:25:54;101076.22;;;23.33
73734;BMP280;62039;50.000;9.064;2023-10-08T15:28:21;101085.13;;;23.27
73734;BMP280;62039;50.000;9.064;2023-10-08T15:30:48;101087.69;;;23.22
73734;BMP280;62039;50.000;9.064;2023-10-08T15:33:17;101083.25;;;23.16
73734;BMP280;62039;50.000;9.064;2023-10-08T15:35:44;101076.97;;;23.10
73734;BMP280;62039;50.000;9.064;2023-10-08T15:38:11;101065.34;;;23.04
73734;BMP280;62039;50.000;9.064;2023-10-08T15:40:38;101063.56;;;22.98
73734;BMP280;62039;50.000;9.064;2023-10-08T15:43:05;101067.72;;;22.94
73734;BMP280;62039;50.000;9.064;2023-10-08T15:45:32;101067.81;;;22.88
73734;BMP280;62039;50.000;9.064;2023-10-08T15:48:00;101074.84;;;22.82
73734;BMP280;62039;50.000;9.064;2023-10-08T15:50:30;101077.13;;;22.79
73734;BMP280;62039;50.000;9.064;2023-10-08T15:52:57;101071.88;;;22.72
73734;BMP280;62039;50.000;9.064;2023-10-08T15:55:24;101061.69;;;22.69
73734;BMP280;62039;50.000;9.064;2023-10-08T15:57:51;101065.25;;;22.63
73734;BMP280;62039;50.000;9.064;2023-10-08T16:00:18;101078.38;;;22.58
73734;BMP280;62039;50.000;9.064;2023-10-08T16:02:45;101071.28;;;22.52
73734;BMP280;62039;50.000;9.064;2023-10-08T16:05:13;101062.31;;;22.46
73734;BMP280;62039;50.000;9.064;2023-10-08T16:07:43;101053.38;;;22.41
73734;BMP280;62039;50.000;9.064;2023-10-08T16:10:10;101046.28;;;22.35
73734;BMP280;62039;50.000;9.064;2023-10-08T16:12:37;101054.13;;;22.29
73734;BMP280;62039;50.000;9.064;2023-10-08T16:15:05;101061.91;;;22.24
73734;BMP280;62039;50.000;9.064;2023-10-08T16:17:32;101073.22;;;22.20
73734;BMP280;62039;50.000;9.064;2023-10-08T16:20:00;101072.28;;;22.14
73734;BMP280;62039;50.000;9.064;2023-10-08T16:22:26;101095.81;;;22.11
73734;BMP280;62039;50.000;9.064;2023-10-08T16:24:56;101113.25;;;22.07
73734;BMP280;62039;50.000;9.064;2023-10-08T16:27:24;101108.81;;;22.01
73734;BMP280;62039;50.000;9.064;2023-10-08T16:29:51;101104.97;;;21.97
73734;BMP280;62039;50.000;9.064;2023-10-08T16:32:18;101101.28;;;21.91
73734;BMP280;62039;50.000;9.064;2023-10-08T16:34:45;101106.44;;;21.86
73734;BMP280;62039;50.000;9.064;2023-10-08T16:37:12;101109.75;;;21.81
73734;BMP280;62039;50.000;9.064;2023-10-08T16:39:39;101110.41;;;21.77
73734;BMP280;62039;50.000;9.064;2023-10-08T16:42:09;101112.06;;;21.71
73734;BMP280;62039;50.000;9.064;2023-10-08T16:44:36;101113.13;;;21.64
73734;BMP280;62039;50.000;9.064;2023-10-08T16:47:03;101107.66;;;21.59
73734;BMP280;62039;50.000;9.064;2023-10-08T16:49:30;101107.50;;;21.53
73734;BMP280;62039;50.000;9.064;2023-10-08T16:51:57;101114.47;;;21.48
73734;BMP280;62039;50.000;9.064;2023-10-08T16:54:24;101115.09;;;21.43
73734;BMP280;62039;50.000;9.064;2023-10-08T16:56:51;101118.63;;;21.37
73734;BMP280;62039;50.000;9.064;2023-10-08T16:59:21;101121.06;;;21.32
73734;BMP280;62039;50.000;9.064;2023-10-08T17:01:48;101132.53;;;21.26
73734;BMP280;62039;50.000;9.064;2023-10-08T17:04:14;101128.09;;;21.20
73734;BMP280;62039;50.000;9.064;2023-10-08T17:06:42;101121.97;;;21.13
73734;BMP280;62039;50.000;9.064;2023-10-08T17:09:09;101117.50;;;21.07
73734;BMP280;62039;50.000;9.064;2023-10-08T17:11:36;101106.91;;;21.00
73734;BMP280;62039;50.000;9.064;2023-10-08T17:14:03;101100.00;;;20.93
73734;BMP280;62039;50.000;9.064;2023-10-08T17:16:32;101096.56;;;20.86
73734;BMP280;62039;50.000;9.064;2023-10-08T17:18:59;101053.47;;;20.77
73734;BMP280;62039;50.000;9.064;2023-10-08T17:21:26;101027.94;;;20.69
73734;BMP280;62039;50.000;9.064;2023-10-08T17:23:53;101048.38;;;20.62
73734;BMP280;62039;50.000;9.064;2023-10-08T17:26:20;101064.56;;;20.54
73734;BMP280;62039;50.000;9.064;2023-10-08T17:28:47;101064.59;;;20.48
73734;BMP280;62039;50.000;9.064;2023-10-08T17:31:14;101060.13;;;20.42
73734;BMP280;62039;50.000;9.064;2023-10-08T17:33:44;101067.84;;;20.36
73734;BMP280;62039;50.000;9.064;2023-10-08T17:36:11;101080.13;;;20.31
73734;BMP280;62039;50.000;9.064;2023-10-08T17:38:38;101070.34;;;20.25
73734;BMP280;62039;50.000;9.064;2023-10-08T17:41:05;101078.91;;;20.20
73734;BMP280;62039;50.000;9.064;2023-10-08T17:43:35;101071.56;;;20.16
73734;BMP280;62039;50.000;9.064;2023-10-08T17:46:02;101072.97;;;20.12
73734;BMP280;62039;50.000;9.064;2023-10-08T17:48:29;101068.06;;;20.09
73734;BMP280;62039;50.000;9.064;2023-10-08T17:50:59;101062.38;;;20.05
73734;BMP280;62039;50.000;9.064;2023-10-08T17:53:26;101065.66;;;20.01
73734;BMP280;62039;50.000;9.064;2023-10-08T17:55:52;101064.22;;;19.98
73734;BMP280;62039;50.000;9.064;2023-10-08T17:58:19;101064.00;;;19.93
73734;BMP280;62039;50.000;9.064;2023-10-08T18:00:46;101068.88;;;19.89
73734;BMP280;62039;50.000;9.064;2023-10-08T18:03:13;101070.31;;;19.85
73734;BMP280;62039;50.000;9.064;2023-10-08T18:05:41;101067.47;;;19.80
73734;BMP280;62039;50.000;9.064;2023-10-08T18:08:10;101069.50;;;19.78
73734;BMP280;62039;50.000;9.064;2023-10-08T18:10:37;101072.78;;;19.74
73734;BMP280;62039;50.000;9.064;2023-10-08T18:13:05;101067.03;;;19.70
73734;BMP280;62039;50.000;9.064;2023-10-08T18:15:32;101065.84;;;19.66
73734;BMP280;62039;50.000;9.064;2023-10-08T18:17:59;101057.69;;;19.61
73734;BMP280;62039;50.000;9.064;2023-10-08T18:20:26;101061.72;;;19.57
73734;BMP280;62039;50.000;9.064;2023-10-08T18:22:53;101060.53;;;19.53
73734;BMP280;62039;50.000;9.064;2023-10-08T18:25:23;101055.56;;;19.50
73734;BMP280;62039;50.000;9.064;2023-10-08T18:27:50;101042.13;;;19.45
73734;BMP280;62039;50.000;9.064;2023-10-08T18:30:17;101045.97;;;19.42
73734;BMP280;62039;50.000;9.064;2023-10-08T18:32:44;101051.06;;;19.37
73734;BMP280;62039;50.000;9.064;2023-10-08T18:35:11;101064.94;;;19.33
73734;BMP280;62039;50.000;9.064;2023-10-08T18:37:38;101062.88;;;19.28
73734;BMP280;62039;50.000;9.064;2023-10-08T18:40:06;101062.47;;;19.25
73734;BMP280;62039;50.000;9.064;2023-10-08T18:42:36;101063.66;;;19.22
73734;BMP280;62039;50.000;9.064;2023-10-08T18:45:03;101069.56;;;19.17
73734;BMP280;62039;50.000;9.064;2023-10-08T18:47:30;101069.94;;;19.14
73734;BMP280;62039;50.000;9.064;2023-10-08T18:49:58;101065.06;;;19.11
73734;BMP280;62039;50.000;9.064;2023-10-08T18:52:41;101064.84;;;19.06
73734;BMP280;62039;50.000;9.064;2023-10-08T18:55:09;101059.94;;;19.03
73734;BMP280;62039;50.000;9.064;2023-10-08T18:57:38;101064.00;;;18.99
73734;BMP280;62039;50.000;9.064;2023-10-08T19:00:07;101059.09;;;18.96
73734;BMP280;62039;50.000;9.064;2023-10-08T19:02:35;101060.34;;;18.94
73734;BMP280;62039;50.000;9.064;2023-10-08T19:05:02;101050.94;;;18.91
73734;BMP280;62039;50.000;9.064;2023-10-08T19:07:29;101052.34;;;18.87
73734;BMP280;62039;50.000;9.064;2023-10-08T19:09:56;101049.25;;;18.83
73734;BMP280;62039;50.000;9.064;2023-10-08T19:12:24;101047.81;;;18.81
73734;BMP280;62039;50.000;9.064;2023-10-08T19:14:53;101051.69;;;18.78
73734;BMP280;62039;50.000;9.064;2023-10-08T19:17:20;101040.66;;;18.75
73734;BMP280;62039;50.000;9.064;2023-10-08T19:19:47;101039.44;;;18.71
73734;BMP280;62039;50.000;9.064;2023-10-08T19:22:14;101035.56;;;18.67
73734;BMP280;62039;50.000;9.064;2023-10-08T19:24:41;101038.56;;;18.64
73734;BMP280;62039;50.000;9.064;2023-10-08T19:27:08;101041.59;;;18.61
73734;BMP280;62039;50.000;9.064;2023-10-08T19:29:35;101037.53;;;18.58
73734;BMP280;62039;50.000;9.064;2023-10-08T19:32:05;101035.25;;;18.55
73734;BMP280;62039;50.000;9.064;2023-10-08T19:34:32;101029.56;;;18.52
73734;BMP280;62039;50.000;9.064;2023-10-08T19:36:59;101024.84;;;18.47
73734;BMP280;62039;50.000;9.064;2023-10-08T19:39:26;101020.78;;;18.45
73734;BMP280;62039;50.000;9.064;2023-10-08T19:41:53;101021.38;;;18.40
73734;BMP280;62039;50.000;9.064;2023-10-08T19:44:20;101021.75;;;18.37
73734;BMP280;62039;50.000;9.064;2023-10-08T19:46:47;101016.00;;;18.33
73734;BMP280;62039;50.000;9.064;2023-10-08T19:49:17;101021.72;;;18.30
73734;BMP280;62039;50.000;9.064;2023-10-08T19:51:43;101015.19;;;18.26
73734;BMP280;62039;50.000;9.064;2023-10-08T19:54:10;101008.41;;;18.24
73734;BMP280;62039;50.000;9.064;2023-10-08T19:56:37;101013.47;;;18.19
73734;BMP280;62039;50.000;9.064;2023-10-08T19:59:04;101010.19;;;18.17
73734;BMP280;62039;50.000;9.064;2023-10-08T20:01:31;101010.56;;;18.14
73734;BMP280;62039;50.000;9.064;2023-10-08T20:03:58;101011.16;;;18.09
73734;BMP280;62039;50.000;9.064;2023-10-08T20:06:28;101007.06;;;18.07
73734;BMP280;62039;50.000;9.064;2023-10-08T20:08:55;101006.03;;;18.01
73734;BMP280;62039;50.000;9.064;2023-10-08T20:11:22;101008.06;;;17.99
73734;BMP280;62039;50.000;9.064;2023-10-08T20:13:49;101007.78;;;17.94
73734;BMP280;62039;50.000;9.064;2023-10-08T20:16:16;101003.91;;;17.90
73734;BMP280;62039;50.000;9.064;2023-10-08T20:18:43;101012.22;;;17.87
73734;BMP280;62039;50.000;9.064;2023-10-08T20:21:10;101007.31;;;17.84
73734;BMP280;62039;50.000;9.064;2023-10-08T20:23:40;101004.22;;;17.80
73734;BMP280;62039;50.000;9.064;2023-10-08T20:26:10;101014.38;;;17.77
73734;BMP280;62039;50.000;9.064;2023-10-08T20:28:37;101021.06;;;17.73
73734;BMP280;62039;50.000;9.064;2023-10-08T20:31:04;101014.50;;;17.69
73734;BMP280;62039;50.000;9.064;2023-10-08T20:33:31;101014.09;;;17.65
73734;BMP280;62039;50.000;9.064;2023-10-08T20:35:58;101017.09;;;17.62
73734;BMP280;62039;50.000;9.064;2023-10-08T20:38:25;101005.28;;;17.58
73734;BMP280;62039;50.000;9.064;2023-10-08T20:40:55;101009.09;;;17.55
73734;BMP280;62039;50.000;9.064;2023-10-08T20:43:22;101019.22;;;17.52
73734;BMP280;62039;50.000;9.064;2023-10-08T20:45:49;101010.84;;;17.48
73734;BMP280;62039;50.000;9.064;2023-10-08T20:48:16;101011.25;;;17.45
73734;BMP280;62039;50.000;9.064;2023-10-08T20:50:43;101019.72;;;17.41
73734;BMP280;62039;50.000;9.064;2023-10-08T20:53:11;101015.63;;;17.38
73734;BMP280;62039;50.000;9.064;2023-10-08T20:55:38;101020.47;;;17.35
73734;BMP280;62039;50.000;9.064;2023-10-08T20:58:08;101020.03;;;17.31
73734;BMP280;62039;50.000;9.064;2023-10-08T21:00:36;101015.13;;;17.28
73734;BMP280;62039;50.000;9.064;2023-10-08T21:03:04;101013.06;;;17.23
73734;BMP280;62039;50.000;9.064;2023-10-08T21:05:31;101014.22;;;17.21
73734;BMP280;62039;50.000;9.064;2023-10-08T21:07:59;101015.81;;;17.15
73734;BMP280;62039;50.000;9.064;2023-10-08T21:10:26;101014.34;;;17.13
73734;BMP280;62039;50.000;9.064;2023-10-08T21:12:54;101013.72;;;17.11
73734;BMP280;62039;50.000;9.064;2023-10-08T21:15:24;101014.91;;;17.08
73734;BMP280;62039;50.000;9.064;2023-10-08T21:17:51;101006.56;;;17.05
73734;BMP280;62039;50.000;9.064;2023-10-08T21:20:21;101004.28;;;17.02
73734;BMP280;62039;50.000;9.064;2023-10-08T21:22:50;101006.28;;;17.00
73734;BMP280;62039;50.000;9.064;2023-10-08T21:25:19;101003.03;;;16.98
73734;BMP280;62039;50.000;9.064;2023-10-08T21:27:49;101008.66;;;16.95
73734;BMP280;62039;50.000;9.064;2023-10-08T21:30:17;101002.13;;;16.91
73734;BMP280;62039;50.000;9.064;2023-10-08T21:32:48;100994.53;;;16.87
73734;BMP280;62039;50.000;9.064;2023-10-08T21:35:16;100995.94;;;16.83
73734;BMP280;62039;50.000;9.064;2023-10-08T21:37:44;100995.28;;;16.81
73734;BMP280;62039;50.000;9.064;2023-10-08T21:40:12;100991.41;;;16.77
73734;BMP280;62039;50.000;9.064;2023-10-08T21:42:41;100988.13;;;16.75
73734;BMP280;62039;50.000;9.064;2023-10-08T21:45:09;100979.72;;;16.72
73734;BMP280;62039;50.000;9.064;2023-10-08T21:47:37;100984.41;;;16.70
73734;BMP280;62039;50.000;9.064;2023-10-08T21:50:09;100981.94;;;16.68
73734;BMP280;62039;50.000;9.064;2023-10-08T21:52:36;100967.50;;;16.64
73734;BMP280;62039;50.000;9.064;2023-10-08T21:55:04;100958.75;;;16.64
73734;BMP280;62039;50.000;9.064;2023-10-08T21:57:31;100956.47;;;16.61
73734;BMP280;62039;50.000;9.064;2023-10-08T21:59:58;100948.75;;;16.59
73734;BMP280;62039;50.000;9.064;2023-10-08T22:02:25;100948.13;;;16.57
73734;BMP280;62039;50.000;9.064;2023-10-08T22:04:52;100944.84;;;16.55
73734;BMP280;62039;50.000;9.064;2023-10-08T22:07:22;100943.22;;;16.54
73734;BMP280;62039;50.000;9.064;2023-10-08T22:09:49;100935.47;;;16.53
73734;BMP280;62039;50.000;9.064;2023-10-08T22:12:16;100935.69;;;16.51
73734;BMP280;62039;50.000;9.064;2023-10-08T22:14:43;100928.78;;;16.50
73734;BMP280;62039;50.000;9.064;2023-10-08T22:17:10;100928.13;;;16.48
73734;BMP280;62039;50.000;9.064;2023-10-08T22:19:37;100933.75;;;16.45
73734;BMP280;62039;50.000;9.064;2023-10-08T22:22:05;100921.78;;;16.42
73734;BMP280;62039;50.000;9.064;2023-10-08T22:24:34;100926.59;;;16.39
73734;BMP280;62039;50.000;9.064;2023-10-08T22:27:01;100928.78;;;16.35
73734;BMP280;62039;50.000;9.064;2023-10-08T22:29:28;100930.78;;;16.33
73734;BMP280;62039;50.000;9.064;2023-10-08T22:31:55;100924.88;;;16.31
73734;BMP280;62039;50.000;9.064;2023-10-08T22:34:22;100940.06;;;16.29
73734;BMP280;62039;50.000;9.064;2023-10-08T22:36:49;100933.34;;;16.27
73734;BMP280;62039;50.000;9.064;2023-10-08T22:39:16;100932.69;;;16.25
73734;BMP280;62039;50.000;9.064;2023-10-08T22:41:46;100926.63;;;16.24
73734;BMP280;62039;50.000;9.064;2023-10-08T22:44:13;100929.44;;;16.23
73734;BMP280;62039;50.000;9.064;2023-10-08T22:46:42;100928.63;;;16.22
73734;BMP280;62039;50.000;9.064;2023-10-08T22:49:10;100930.59;;;16.20
73734;BMP280;62039;50.000;9.064;2023-10-08T22:51:37;100925.34;;;16.20